sensor_id;sensor_type;location;lat;lon;timestamp;P1;durP1;ratioP1;P2;durP2;ratioP2
48665;SDS011;34452;50.796;4.994;2023-01-16T00:01:11;5.68;;;1.30;;
48665;SDS011;34452;50.796;4.994;2023-01-16T00:06:03;3.67;;;0.90;;
48665;SDS011;34452;50.796;4.994;2023-01-16T00:10:55;7.07;;;1.15;;
48665;SDS011;34452;50.796;4.994;2023-01-16T00:13:21;5.63;;;1.17;;
48665;SDS011;34452;50.796;4.994;2023-01-16T00:15:47;6.18;;;1.08;;
48665;SDS011;34452;50.796;4.994;2023-01-16T00:18:14;5.97;;;0.82;;
48665;SDS011;34452;50.796;4.994;2023-01-16T00:20:40;7.07;;;1.00;;
48665;SDS011;34452;50.796;4.994;2023-01-16T00:23:06;4.43;;;1.20;;
48665;SDS011;34452;50.796;4.994;2023-01-16T00:25:32;11.73;;;1.23;;
48665;SDS011;34452;50.796;4.994;2023-01-16T00:27:58;7.13;;;1.05;;
48665;SDS011;34452;50.796;4.994;2023-01-16T00:30:23;9.88;;;1.30;;
48665;SDS011;34452;50.796;4.994;2023-01-16T00:32:49;8.48;;;1.58;;
48665;SDS011;34452;50.796;4.994;2023-01-16T00:35:15;10.18;;;1.58;;
48665;SDS011;34452;50.796;4.994;2023-01-16T00:37:41;7.47;;;1.00;;
48665;SDS011;34452;50.796;4.994;2023-01-16T00:40:07;3.63;;;1.10;;
48665;SDS011;34452;50.796;4.994;2023-01-16T00:42:33;7.28;;;0.80;;
48665;SDS011;34452;50.796;4.994;2023-01-16T00:44:59;2.92;;;0.80;;
48665;SDS011;34452;50.796;4.994;2023-01-16T00:47:24;6.80;;;0.93;;
48665;SDS011;34452;50.796;4.994;2023-01-16T00:49:50;11.63;;;1.30;;
48665;SDS011;34452;50.796;4.994;2023-01-16T00:52:16;4.43;;;0.90;;
48665;SDS011;34452;50.796;4.994;2023-01-16T00:54:42;5.32;;;0.75;;
48665;SDS011;34452;50.796;4.994;2023-01-16T00:57:07;4.17;;;1.10;;
48665;SDS011;34452;50.796;4.994;2023-01-16T00:59:33;4.73;;;0.93;;
48665;SDS011;34452;50.796;4.994;2023-01-16T01:01:59;5.73;;;1.10;;
48665;SDS011;34452;50.796;4.994;2023-01-16T01:04:24;4.10;;;1.10;;
48665;SDS011;34452;50.796;4.994;2023-01-16T01:06:50;13.10;;;1.20;;
48665;SDS011;34452;50.796;4.994;2023-01-16T01:09:16;4.97;;;1.57;;
48665;SDS011;34452;50.796;4.994;2023-01-16T01:11:41;2.95;;;0.70;;
48665;SDS011;34452;50.796;4.994;2023-01-16T01:14:07;8.13;;;1.00;;
48665;SDS011;34452;50.796;4.994;2023-01-16T01:16:33;9.07;;;1.37;;
48665;SDS011;34452;50.796;4.994;2023-01-16T01:18:58;15.25;;;1.20;;
48665;SDS011;34452;50.796;4.994;2023-01-16T01:21:24;8.33;;;1.67;;
48665;SDS011;34452;50.796;4.994;2023-01-16T01:23:50;6.00;;;1.30;;
48665;SDS011;34452;50.796;4.994;2023-01-16T01:26:16;6.32;;;1.10;;
48665;SDS011;34452;50.796;4.994;2023-01-16T01:31:09;5.95;;;1.40;;
48665;SDS011;34452;50.796;4.994;2023-01-16T01:33:36;5.35;;;1.20;;
48665;SDS011;34452;50.796;4.994;2023-01-16T01:36:03;5.43;;;1.50;;
48665;SDS011;34452;50.796;4.994;2023-01-16T01:38:30;10.25;;;1.90;;
48665;SDS011;34452;50.796;4.994;2023-01-16T01:40:56;6.43;;;1.02;;
48665;SDS011;34452;50.796;4.994;2023-01-16T01:43:38;9.13;;;1.58;;
48665;SDS011;34452;50.796;4.994;2023-01-16T01:46:13;4.87;;;1.40;;
48665;SDS011;34452;50.796;4.994;2023-01-16T01:48:45;5.07;;;1.45;;
48665;SDS011;34452;50.796;4.994;2023-01-16T01:51:17;7.40;;;1.80;;
48665;SDS011;34452;50.796;4.994;2023-01-16T01:53:50;3.65;;;1.10;;
48665;SDS011;34452;50.796;4.994;2023-01-16T01:56:30;7.47;;;1.45;;
48665;SDS011;34452;50.796;4.994;2023-01-16T01:59:01;6.18;;;1.35;;
48665;SDS011;34452;50.796;4.994;2023-01-16T02:01:32;4.82;;;1.20;;
48665;SDS011;34452;50.796;4.994;2023-01-16T02:04:00;3.10;;;1.00;;
48665;SDS011;34452;50.796;4.994;2023-01-16T02:06:30;8.10;;;1.55;;
48665;SDS011;34452;50.796;4.994;2023-01-16T02:09:04;11.30;;;1.65;;
48665;SDS011;34452;50.796;4.994;2023-01-16T02:11:38;8.55;;;1.65;;
48665;SDS011;34452;50.796;4.994;2023-01-16T02:14:11;7.05;;;1.13;;
48665;SDS011;34452;50.796;4.994;2023-01-16T02:16:40;11.30;;;1.42;;
48665;SDS011;34452;50.796;4.994;2023-01-16T02:22:19;8.93;;;1.30;;
48665;SDS011;34452;50.796;4.994;2023-01-16T02:25:02;5.45;;;1.17;;
48665;SDS011;34452;50.796;4.994;2023-01-16T02:31:18;8.95;;;1.90;;
48665;SDS011;34452;50.796;4.994;2023-01-16T02:42:08;11.77;;;1.67;;
48665;SDS011;34452;50.796;4.994;2023-01-16T02:47:30;8.20;;;1.90;;
48665;SDS011;34452;50.796;4.994;2023-01-16T02:57:58;9.85;;;1.20;;
48665;SDS011;34452;50.796;4.994;2023-01-16T03:00:26;14.63;;;2.00;;
48665;SDS011;34452;50.796;4.994;2023-01-16T03:02:54;9.70;;;1.67;;
48665;SDS011;34452;50.796;4.994;2023-01-16T03:05:20;6.30;;;1.35;;
48665;SDS011;34452;50.796;4.994;2023-01-16T03:10:39;8.93;;;1.70;;
48665;SDS011;34452;50.796;4.994;2023-01-16T03:19:06;7.70;;;1.35;;
48665;SDS011;34452;50.796;4.994;2023-01-16T03:21:59;8.52;;;1.35;;
48665;SDS011;34452;50.796;4.994;2023-01-16T03:27:10;8.20;;;1.52;;
48665;SDS011;34452;50.796;4.994;2023-01-16T03:29:54;6.55;;;1.42;;
48665;SDS011;34452;50.796;4.994;2023-01-16T03:32:39;11.65;;;1.63;;
48665;SDS011;34452;50.796;4.994;2023-01-16T03:37:47;6.27;;;1.00;;
48665;SDS011;34452;50.796;4.994;2023-01-16T03:40:28;5.55;;;1.15;;
48665;SDS011;34452;50.796;4.994;2023-01-16T03:45:40;4.80;;;0.85;;
48665;SDS011;34452;50.796;4.994;2023-01-16T03:48:29;4.72;;;0.90;;
48665;SDS011;34452;50.796;4.994;2023-01-16T03:50:59;5.90;;;0.98;;
48665;SDS011;34452;50.796;4.994;2023-01-16T03:53:32;4.03;;;1.00;;
48665;SDS011;34452;50.796;4.994;2023-01-16T03:58:45;4.65;;;1.08;;
48665;SDS011;34452;50.796;4.994;2023-01-16T04:03:48;6.28;;;1.27;;
48665;SDS011;34452;50.796;4.994;2023-01-16T04:06:24;9.25;;;1.23;;
48665;SDS011;34452;50.796;4.994;2023-01-16T04:09:01;8.30;;;1.50;;
48665;SDS011;34452;50.796;4.994;2023-01-16T04:11:32;5.68;;;1.20;;
48665;SDS011;34452;50.796;4.994;2023-01-16T04:14:01;5.85;;;0.95;;
48665;SDS011;34452;50.796;4.994;2023-01-16T04:16:28;9.43;;;1.58;;
48665;SDS011;34452;50.796;4.994;2023-01-16T04:18:55;7.10;;;1.35;;
48665;SDS011;34452;50.796;4.994;2023-01-16T04:21:28;6.90;;;1.25;;
48665;SDS011;34452;50.796;4.994;2023-01-16T04:23:56;11.48;;;1.25;;
48665;SDS011;34452;50.796;4.994;2023-01-16T04:26:24;4.68;;;0.75;;
48665;SDS011;34452;50.796;4.994;2023-01-16T04:28:50;11.00;;;1.17;;
48665;SDS011;34452;50.796;4.994;2023-01-16T04:31:20;5.03;;;0.95;;
48665;SDS011;34452;50.796;4.994;2023-01-16T04:33:47;8.30;;;1.33;;
48665;SDS011;34452;50.796;4.994;2023-01-16T04:36:13;6.63;;;1.23;;
48665;SDS011;34452;50.796;4.994;2023-01-16T04:38:39;4.37;;;1.03;;
48665;SDS011;34452;50.796;4.994;2023-01-16T04:41:04;8.10;;;1.30;;
48665;SDS011;34452;50.796;4.994;2023-01-16T04:43:30;9.37;;;1.70;;
48665;SDS011;34452;50.796;4.994;2023-01-16T04:45:56;8.97;;;2.17;;
48665;SDS011;34452;50.796;4.994;2023-01-16T04:48:21;6.75;;;1.02;;
48665;SDS011;34452;50.796;4.994;2023-01-16T04:50:48;6.43;;;1.30;;
48665;SDS011;34452;50.796;4.994;2023-01-16T04:53:14;7.75;;;0.88;;
48665;SDS011;34452;50.796;4.994;2023-01-16T04:55:40;14.43;;;2.35;;
48665;SDS011;34452;50.796;4.994;2023-01-16T04:58:05;4.38;;;1.00;;
48665;SDS011;34452;50.796;4.994;2023-01-16T05:00:31;4.82;;;0.95;;
48665;SDS011;34452;50.796;4.994;2023-01-16T05:02:57;9.30;;;1.20;;
48665;SDS011;34452;50.796;4.994;2023-01-16T05:05:23;4.72;;;1.20;;
48665;SDS011;34452;50.796;4.994;2023-01-16T05:07:49;14.80;;;1.43;;
48665;SDS011;34452;50.796;4.994;2023-01-16T05:10:34;8.55;;;1.05;;
48665;SDS011;34452;50.796;4.994;2023-01-16T05:13:00;8.82;;;1.73;;
48665;SDS011;34452;50.796;4.994;2023-01-16T05:15:26;9.47;;;1.37;;
48665;SDS011;34452;50.796;4.994;2023-01-16T05:17:51;8.00;;;1.35;;
48665;SDS011;34452;50.796;4.994;2023-01-16T05:20:18;5.80;;;0.95;;
48665;SDS011;34452;50.796;4.994;2023-01-16T05:22:43;10.63;;;1.47;;
48665;SDS011;34452;50.796;4.994;2023-01-16T05:25:09;4.67;;;0.97;;
48665;SDS011;34452;50.796;4.994;2023-01-16T05:27:35;10.23;;;1.27;;
48665;SDS011;34452;50.796;4.994;2023-01-16T05:30:00;10.15;;;1.35;;
48665;SDS011;34452;50.796;4.994;2023-01-16T05:32:26;5.20;;;0.98;;
48665;SDS011;34452;50.796;4.994;2023-01-16T05:34:52;8.17;;;1.17;;
48665;SDS011;34452;50.796;4.994;2023-01-16T05:37:17;7.50;;;1.07;;
48665;SDS011;34452;50.796;4.994;2023-01-16T05:39:43;7.57;;;1.13;;
48665;SDS011;34452;50.796;4.994;2023-01-16T05:42:10;4.80;;;1.02;;
48665;SDS011;34452;50.796;4.994;2023-01-16T05:44:48;9.13;;;1.02;;
48665;SDS011;34452;50.796;4.994;2023-01-16T05:47:15;3.53;;;1.02;;
48665;SDS011;34452;50.796;4.994;2023-01-16T05:49:41;9.32;;;1.83;;
48665;SDS011;34452;50.796;4.994;2023-01-16T05:52:06;6.47;;;1.43;;
48665;SDS011;34452;50.796;4.994;2023-01-16T05:54:32;8.88;;;0.90;;
48665;SDS011;34452;50.796;4.994;2023-01-16T05:56:58;8.52;;;1.83;;
48665;SDS011;34452;50.796;4.994;2023-01-16T05:59:23;8.60;;;1.20;;
48665;SDS011;34452;50.796;4.994;2023-01-16T06:01:49;7.43;;;1.05;;
48665;SDS011;34452;50.796;4.994;2023-01-16T06:04:15;4.53;;;0.77;;
48665;SDS011;34452;50.796;4.994;2023-01-16T06:06:43;5.18;;;0.70;;
48665;SDS011;34452;50.796;4.994;2023-01-16T06:09:08;8.52;;;0.90;;
48665;SDS011;34452;50.796;4.994;2023-01-16T06:11:34;6.53;;;1.20;;
48665;SDS011;34452;50.796;4.994;2023-01-16T06:14:00;5.80;;;1.13;;
48665;SDS011;34452;50.796;4.994;2023-01-16T06:16:30;6.28;;;0.95;;
48665;SDS011;34452;50.796;4.994;2023-01-16T06:18:56;5.90;;;1.13;;
48665;SDS011;34452;50.796;4.994;2023-01-16T06:21:22;4.45;;;0.93;;
48665;SDS011;34452;50.796;4.994;2023-01-16T06:23:48;7.63;;;1.03;;
48665;SDS011;34452;50.796;4.994;2023-01-16T06:26:13;3.27;;;0.80;;
48665;SDS011;34452;50.796;4.994;2023-01-16T06:28:39;5.83;;;1.00;;
48665;SDS011;34452;50.796;4.994;2023-01-16T06:31:05;4.18;;;0.70;;
48665;SDS011;34452;50.796;4.994;2023-01-16T06:33:31;4.20;;;0.88;;
48665;SDS011;34452;50.796;4.994;2023-01-16T06:35:57;3.90;;;0.90;;
48665;SDS011;34452;50.796;4.994;2023-01-16T06:38:23;2.72;;;0.80;;
48665;SDS011;34452;50.796;4.994;2023-01-16T06:40:49;1.67;;;0.63;;
48665;SDS011;34452;50.796;4.994;2023-01-16T06:43:14;5.60;;;0.73;;
48665;SDS011;34452;50.796;4.994;2023-01-16T06:45:41;2.97;;;0.70;;
48665;SDS011;34452;50.796;4.994;2023-01-16T06:48:10;6.40;;;0.85;;
48665;SDS011;34452;50.796;4.994;2023-01-16T06:50:36;0.95;;;0.50;;
48665;SDS011;34452;50.796;4.994;2023-01-16T06:53:02;5.23;;;0.63;;
48665;SDS011;34452;50.796;4.994;2023-01-16T06:55:27;4.13;;;0.70;;
48665;SDS011;34452;50.796;4.994;2023-01-16T06:57:53;2.38;;;0.65;;
48665;SDS011;34452;50.796;4.994;2023-01-16T07:00:19;2.00;;;0.50;;
48665;SDS011;34452;50.796;4.994;2023-01-16T07:02:54;1.92;;;0.43;;
48665;SDS011;34452;50.796;4.994;2023-01-16T07:05:22;1.00;;;0.40;;
48665;SDS011;34452;50.796;4.994;2023-01-16T07:07:48;1.02;;;0.57;;
48665;SDS011;34452;50.796;4.994;2023-01-16T07:10:14;1.33;;;0.45;;
48665;SDS011;34452;50.796;4.994;2023-01-16T07:12:40;1.30;;;0.60;;
48665;SDS011;34452;50.796;4.994;2023-01-16T07:15:06;1.00;;;0.45;;
48665;SDS011;34452;50.796;4.994;2023-01-16T07:17:51;0.93;;;0.32;;
48665;SDS011;34452;50.796;4.994;2023-01-16T07:20:35;2.00;;;0.60;;
48665;SDS011;34452;50.796;4.994;2023-01-16T07:23:21;1.23;;;0.60;;
48665;SDS011;34452;50.796;4.994;2023-01-16T07:25:49;0.68;;;0.40;;
48665;SDS011;34452;50.796;4.994;2023-01-16T07:28:18;0.35;;;0.28;;
48665;SDS011;34452;50.796;4.994;2023-01-16T07:30:45;1.55;;;0.43;;
48665;SDS011;34452;50.796;4.994;2023-01-16T07:33:12;1.98;;;0.35;;
48665;SDS011;34452;50.796;4.994;2023-01-16T07:35:38;0.60;;;0.25;;
48665;SDS011;34452;50.796;4.994;2023-01-16T07:38:03;0.32;;;0.32;;
48665;SDS011;34452;50.796;4.994;2023-01-16T07:40:29;0.85;;;0.30;;
48665;SDS011;34452;50.796;4.994;2023-01-16T07:42:55;1.55;;;0.43;;
48665;SDS011;34452;50.796;4.994;2023-01-16T07:45:21;1.45;;;0.40;;
48665;SDS011;34452;50.796;4.994;2023-01-16T07:47:46;1.52;;;0.30;;
48665;SDS011;34452;50.796;4.994;2023-01-16T07:50:12;1.33;;;0.73;;
48665;SDS011;34452;50.796;4.994;2023-01-16T07:52:38;0.23;;;0.23;;
48665;SDS011;34452;50.796;4.994;2023-01-16T07:55:03;1.20;;;0.30;;
48665;SDS011;34452;50.796;4.994;2023-01-16T07:57:30;0.20;;;0.20;;
48665;SDS011;34452;50.796;4.994;2023-01-16T07:59:55;0.10;;;0.10;;
48665;SDS011;34452;50.796;4.994;2023-01-16T08:02:21;0.10;;;0.10;;
48665;SDS011;34452;50.796;4.994;2023-01-16T08:04:47;0.55;;;0.20;;
48665;SDS011;34452;50.796;4.994;2023-01-16T08:07:13;0.20;;;0.20;;
48665;SDS011;34452;50.796;4.994;2023-01-16T08:09:38;0.20;;;0.20;;
48665;SDS011;34452;50.796;4.994;2023-01-16T08:12:04;0.30;;;0.30;;
48665;SDS011;34452;50.796;4.994;2023-01-16T08:14:30;1.02;;;0.40;;
48665;SDS011;34452;50.796;4.994;2023-01-16T08:16:56;0.35;;;0.25;;
48665;SDS011;34452;50.796;4.994;2023-01-16T08:19:22;0.20;;;0.20;;
48665;SDS011;34452;50.796;4.994;2023-01-16T08:21:47;0.20;;;0.20;;
48665;SDS011;34452;50.796;4.994;2023-01-16T08:24:13;0.40;;;0.20;;
48665;SDS011;34452;50.796;4.994;2023-01-16T08:26:40;0.30;;;0.20;;
48665;SDS011;34452;50.796;4.994;2023-01-16T08:31:31;0.20;;;0.20;;
48665;SDS011;34452;50.796;4.994;2023-01-16T08:33:57;1.02;;;0.38;;
48665;SDS011;34452;50.796;4.994;2023-01-16T08:36:23;0.82;;;0.35;;
48665;SDS011;34452;50.796;4.994;2023-01-16T08:38:50;0.10;;;0.10;;
48665;SDS011;34452;50.796;4.994;2023-01-16T08:41:16;0.20;;;0.20;;
48665;SDS011;34452;50.796;4.994;2023-01-16T08:44:01;0.30;;;0.10;;
48665;SDS011;34452;50.796;4.994;2023-01-16T08:46:48;2.95;;;0.40;;
48665;SDS011;34452;50.796;4.994;2023-01-16T08:49:38;1.35;;;0.28;;
48665;SDS011;34452;50.796;4.994;2023-01-16T08:52:22;0.50;;;0.20;;
48665;SDS011;34452;50.796;4.994;2023-01-16T08:54:49;0.40;;;0.25;;
48665;SDS011;34452;50.796;4.994;2023-01-16T08:57:14;0.73;;;0.33;;
48665;SDS011;34452;50.796;4.994;2023-01-16T08:59:40;0.97;;;0.40;;
48665;SDS011;34452;50.796;4.994;2023-01-16T09:02:06;0.37;;;0.37;;
48665;SDS011;34452;50.796;4.994;2023-01-16T09:04:35;0.28;;;0.28;;
48665;SDS011;34452;50.796;4.994;2023-01-16T09:07:01;0.20;;;0.20;;
48665;SDS011;34452;50.796;4.994;2023-01-16T09:09:26;1.20;;;0.40;;
48665;SDS011;34452;50.796;4.994;2023-01-16T09:11:55;0.68;;;0.20;;
48665;SDS011;34452;50.796;4.994;2023-01-16T09:14:39;5.00;;;0.43;;
48665;SDS011;34452;50.796;4.994;2023-01-16T09:17:05;2.40;;;0.60;;
48665;SDS011;34452;50.796;4.994;2023-01-16T09:19:32;0.93;;;0.40;;
48665;SDS011;34452;50.796;4.994;2023-01-16T09:21:58;0.52;;;0.40;;
48665;SDS011;34452;50.796;4.994;2023-01-16T09:24:23;0.50;;;0.30;;
48665;SDS011;34452;50.796;4.994;2023-01-16T09:29:15;1.27;;;0.47;;
48665;SDS011;34452;50.796;4.994;2023-01-16T09:31:41;2.47;;;0.30;;
48665;SDS011;34452;50.796;4.994;2023-01-16T09:34:07;0.67;;;0.30;;
48665;SDS011;34452;50.796;4.994;2023-01-16T09:36:32;0.30;;;0.20;;
48665;SDS011;34452;50.796;4.994;2023-01-16T09:38:58;0.57;;;0.40;;
48665;SDS011;34452;50.796;4.994;2023-01-16T09:41:24;1.43;;;0.50;;
48665;SDS011;34452;50.796;4.994;2023-01-16T09:44:11;1.25;;;0.40;;
48665;SDS011;34452;50.796;4.994;2023-01-16T09:46:46;0.80;;;0.30;;
48665;SDS011;34452;50.796;4.994;2023-01-16T09:50:15;3.47;;;0.60;;
48665;SDS011;34452;50.796;4.994;2023-01-16T09:52:12;0.70;;;0.32;;
48665;SDS011;34452;50.796;4.994;2023-01-16T09:55:03;2.83;;;0.63;;
48665;SDS011;34452;50.796;4.994;2023-01-16T09:57:54;0.95;;;0.38;;
48665;SDS011;34452;50.796;4.994;2023-01-16T10:00:39;2.50;;;0.60;;
48665;SDS011;34452;50.796;4.994;2023-01-16T10:03:06;3.13;;;0.50;;
48665;SDS011;34452;50.796;4.994;2023-01-16T10:05:38;1.42;;;0.52;;
48665;SDS011;34452;50.796;4.994;2023-01-16T10:10:49;0.98;;;0.45;;
48665;SDS011;34452;50.796;4.994;2023-01-16T10:22:06;0.47;;;0.38;;
48665;SDS011;34452;50.796;4.994;2023-01-16T10:30:29;0.57;;;0.40;;
48665;SDS011;34452;50.796;4.994;2023-01-16T10:33:14;0.40;;;0.30;;
48665;SDS011;34452;50.796;4.994;2023-01-16T10:35:51;0.88;;;0.30;;
48665;SDS011;34452;50.796;4.994;2023-01-16T10:38:22;0.47;;;0.28;;
48665;SDS011;34452;50.796;4.994;2023-01-16T10:41:17;0.35;;;0.30;;
48665;SDS011;34452;50.796;4.994;2023-01-16T10:44:04;0.20;;;0.20;;
48665;SDS011;34452;50.796;4.994;2023-01-16T10:47:18;1.13;;;0.20;;
48665;SDS011;34452;50.796;4.994;2023-01-16T10:50:11;0.10;;;0.10;;
48665;SDS011;34452;50.796;4.994;2023-01-16T10:52:38;0.20;;;0.20;;
48665;SDS011;34452;50.796;4.994;2023-01-16T10:55:04;0.20;;;0.20;;
48665;SDS011;34452;50.796;4.994;2023-01-16T10:57:31;1.17;;;0.25;;
48665;SDS011;34452;50.796;4.994;2023-01-16T11:00:10;0.20;;;0.20;;
48665;SDS011;34452;50.796;4.994;2023-01-16T11:02:54;0.22;;;0.20;;
48665;SDS011;34452;50.796;4.994;2023-01-16T11:05:40;0.35;;;0.30;;
48665;SDS011;34452;50.796;4.994;2023-01-16T11:10:46;0.38;;;0.30;;
48665;SDS011;34452;50.796;4.994;2023-01-16T11:13:14;0.30;;;0.15;;
48665;SDS011;34452;50.796;4.994;2023-01-16T11:18:58;1.48;;;0.30;;
48665;SDS011;34452;50.796;4.994;2023-01-16T11:21:39;0.35;;;0.20;;
48665;SDS011;34452;50.796;4.994;2023-01-16T11:24:16;1.10;;;0.22;;
48665;SDS011;34452;50.796;4.994;2023-01-16T11:26:52;0.45;;;0.25;;
48665;SDS011;34452;50.796;4.994;2023-01-16T11:29:20;0.20;;;0.20;;
48665;SDS011;34452;50.796;4.994;2023-01-16T11:31:51;0.10;;;0.10;;
48665;SDS011;34452;50.796;4.994;2023-01-16T11:34:21;1.40;;;0.30;;
48665;SDS011;34452;50.796;4.994;2023-01-16T11:36:58;0.10;;;0.10;;
48665;SDS011;34452;50.796;4.994;2023-01-16T11:39:28;0.20;;;0.20;;
48665;SDS011;34452;50.796;4.994;2023-01-16T11:41:58;0.22;;;0.20;;
48665;SDS011;34452;50.796;4.994;2023-01-16T11:44:46;0.22;;;0.20;;
48665;SDS011;34452;50.796;4.994;2023-01-16T11:47:31;0.15;;;0.15;;
48665;SDS011;34452;50.796;4.994;2023-01-16T11:53:01;0.30;;;0.30;;
48665;SDS011;34452;50.796;4.994;2023-01-16T11:55:42;0.63;;;0.30;;
48665;SDS011;34452;50.796;4.994;2023-01-16T11:58:46;0.20;;;0.20;;
48665;SDS011;34452;50.796;4.994;2023-01-16T12:04:23;0.88;;;0.30;;
48665;SDS011;34452;50.796;4.994;2023-01-16T12:06:56;0.50;;;0.20;;
48665;SDS011;34452;50.796;4.994;2023-01-16T12:12:16;0.70;;;0.30;;
48665;SDS011;34452;50.796;4.994;2023-01-16T12:20:58;2.70;;;0.30;;
48665;SDS011;34452;50.796;4.994;2023-01-16T12:23:45;0.60;;;0.40;;
48665;SDS011;34452;50.796;4.994;2023-01-16T12:26:19;1.08;;;0.30;;
48665;SDS011;34452;50.796;4.994;2023-01-16T12:40:04;0.30;;;0.30;;
48665;SDS011;34452;50.796;4.994;2023-01-16T12:45:59;0.20;;;0.20;;
48665;SDS011;34452;50.796;4.994;2023-01-16T12:51:26;0.85;;;0.20;;
48665;SDS011;34452;50.796;4.994;2023-01-16T12:59:56;1.35;;;0.30;;
48665;SDS011;34452;50.796;4.994;2023-01-16T13:02:29;0.55;;;0.30;;
48665;SDS011;34452;50.796;4.994;2023-01-16T13:05:14;0.30;;;0.30;;
48665;SDS011;34452;50.796;4.994;2023-01-16T13:08:06;0.30;;;0.30;;
48665;SDS011;34452;50.796;4.994;2023-01-16T13:10:35;1.08;;;0.35;;
48665;SDS011;34452;50.796;4.994;2023-01-16T13:13:30;2.10;;;0.50;;
48665;SDS011;34452;50.796;4.994;2023-01-16T13:16:07;0.30;;;0.30;;
48665;SDS011;34452;50.796;4.994;2023-01-16T13:21:34;0.35;;;0.35;;
48665;SDS011;34452;50.796;4.994;2023-01-16T13:24:15;0.30;;;0.30;;
48665;SDS011;34452;50.796;4.994;2023-01-16T13:26:47;1.98;;;0.60;;
48665;SDS011;34452;50.796;4.994;2023-01-16T13:29:20;1.65;;;0.50;;
48665;SDS011;34452;50.796;4.994;2023-01-16T13:31:54;0.30;;;0.30;;
48665;SDS011;34452;50.796;4.994;2023-01-16T13:42:04;0.30;;;0.30;;
48665;SDS011;34452;50.796;4.994;2023-01-16T13:44:37;0.45;;;0.40;;
48665;SDS011;34452;50.796;4.994;2023-01-16T13:47:28;0.40;;;0.20;;
48665;SDS011;34452;50.796;4.994;2023-01-16T13:50:06;1.52;;;0.10;;
48665;SDS011;34452;50.796;4.994;2023-01-16T13:52:40;0.70;;;0.35;;
48665;SDS011;34452;50.796;4.994;2023-01-16T13:55:16;0.28;;;0.28;;
48665;SDS011;34452;50.796;4.994;2023-01-16T13:57:56;2.33;;;0.28;;
48665;SDS011;34452;50.796;4.994;2023-01-16T14:00:37;0.40;;;0.22;;
48665;SDS011;34452;50.796;4.994;2023-01-16T14:05:47;0.80;;;0.50;;
48665;SDS011;34452;50.796;4.994;2023-01-16T14:08:19;0.20;;;0.20;;
48665;SDS011;34452;50.796;4.994;2023-01-16T14:13:40;0.50;;;0.22;;
48665;SDS011;34452;50.796;4.994;2023-01-16T14:21:25;0.50;;;0.40;;
48665;SDS011;34452;50.796;4.994;2023-01-16T14:23:57;0.65;;;0.25;;
48665;SDS011;34452;50.796;4.994;2023-01-16T14:29:23;1.23;;;0.60;;
48665;SDS011;34452;50.796;4.994;2023-01-16T14:32:02;0.75;;;0.40;;
48665;SDS011;34452;50.796;4.994;2023-01-16T14:34:38;0.47;;;0.40;;
48665;SDS011;34452;50.796;4.994;2023-01-16T14:37:17;1.13;;;0.50;;
48665;SDS011;34452;50.796;4.994;2023-01-16T14:39:51;1.05;;;0.50;;
48665;SDS011;34452;50.796;4.994;2023-01-16T14:45:18;0.68;;;0.52;;
48665;SDS011;34452;50.796;4.994;2023-01-16T14:53:49;3.83;;;0.75;;
48665;SDS011;34452;50.796;4.994;2023-01-16T14:56:52;1.85;;;0.38;;
48665;SDS011;34452;50.796;4.994;2023-01-16T14:59:34;0.95;;;0.50;;
48665;SDS011;34452;50.796;4.994;2023-01-16T15:02:06;0.90;;;0.57;;
48665;SDS011;34452;50.796;4.994;2023-01-16T15:07:31;0.82;;;0.50;;
48665;SDS011;34452;50.796;4.994;2023-01-16T15:11:00;1.83;;;0.65;;
48665;SDS011;34452;50.796;4.994;2023-01-16T15:13:12;0.73;;;0.50;;
48665;SDS011;34452;50.796;4.994;2023-01-16T15:16:01;5.97;;;0.50;;
48665;SDS011;34452;50.796;4.994;2023-01-16T15:18:29;1.85;;;0.60;;
48665;SDS011;34452;50.796;4.994;2023-01-16T15:21:17;0.65;;;0.50;;
48665;SDS011;34452;50.796;4.994;2023-01-16T15:24:23;3.35;;;0.80;;
48665;SDS011;34452;50.796;4.994;2023-01-16T15:30:13;4.38;;;0.70;;
48665;SDS011;34452;50.796;4.994;2023-01-16T15:32:25;1.27;;;0.80;;
48665;SDS011;34452;50.796;4.994;2023-01-16T15:37:53;3.38;;;0.70;;
48665;SDS011;34452;50.796;4.994;2023-01-16T15:40:29;1.25;;;0.70;;
48665;SDS011;34452;50.796;4.994;2023-01-16T15:42:55;1.55;;;0.75;;
48665;SDS011;34452;50.796;4.994;2023-01-16T15:45:50;1.50;;;0.70;;
48665;SDS011;34452;50.796;4.994;2023-01-16T15:48:45;1.23;;;0.77;;
48665;SDS011;34452;50.796;4.994;2023-01-16T15:51:40;0.95;;;0.70;;
48665;SDS011;34452;50.796;4.994;2023-01-16T15:54:08;1.48;;;1.00;;
48665;SDS011;34452;50.796;4.994;2023-01-16T15:56:41;2.05;;;1.20;;
48665;SDS011;34452;50.796;4.994;2023-01-16T16:01:49;1.20;;;0.80;;
48665;SDS011;34452;50.796;4.994;2023-01-16T16:04:15;1.87;;;0.63;;
48665;SDS011;34452;50.796;4.994;2023-01-16T16:06:41;1.00;;;0.70;;
48665;SDS011;34452;50.796;4.994;2023-01-16T16:09:13;1.52;;;0.90;;
48665;SDS011;34452;50.796;4.994;2023-01-16T16:11:43;2.33;;;0.88;;
48665;SDS011;34452;50.796;4.994;2023-01-16T16:14:24;1.03;;;0.70;;
48665;SDS011;34452;50.796;4.994;2023-01-16T16:17:20;1.33;;;1.00;;
48665;SDS011;34452;50.796;4.994;2023-01-16T16:25:43;2.13;;;1.60;;
48665;SDS011;34452;50.796;4.994;2023-01-16T16:31:12;3.72;;;2.33;;
48665;SDS011;34452;50.796;4.994;2023-01-16T16:33:41;4.85;;;3.00;;
48665;SDS011;34452;50.796;4.994;2023-01-16T16:36:13;4.05;;;3.17;;
48665;SDS011;34452;50.796;4.994;2023-01-16T16:51:35;1.95;;;1.40;;
48665;SDS011;34452;50.796;4.994;2023-01-16T16:54:10;2.17;;;1.17;;
48665;SDS011;34452;50.796;4.994;2023-01-16T16:56:39;3.35;;;1.40;;
48665;SDS011;34452;50.796;4.994;2023-01-16T16:59:20;1.92;;;1.67;;
48665;SDS011;34452;50.796;4.994;2023-01-16T17:01:50;1.63;;;1.52;;
48665;SDS011;34452;50.796;4.994;2023-01-16T17:04:20;2.00;;;1.70;;
48665;SDS011;34452;50.796;4.994;2023-01-16T17:06:47;1.92;;;1.60;;
48665;SDS011;34452;50.796;4.994;2023-01-16T17:09:16;7.47;;;2.53;;
48665;SDS011;34452;50.796;4.994;2023-01-16T17:11:42;2.63;;;2.25;;
48665;SDS011;34452;50.796;4.994;2023-01-16T17:14:09;2.05;;;1.38;;
48665;SDS011;34452;50.796;4.994;2023-01-16T17:16:35;3.47;;;1.00;;
48665;SDS011;34452;50.796;4.994;2023-01-16T17:19:10;1.40;;;1.17;;
48665;SDS011;34452;50.796;4.994;2023-01-16T17:21:41;2.53;;;1.83;;
48665;SDS011;34452;50.796;4.994;2023-01-16T17:24:08;1.73;;;1.40;;
48665;SDS011;34452;50.796;4.994;2023-01-16T17:26:41;1.52;;;1.25;;
48665;SDS011;34452;50.796;4.994;2023-01-16T17:29:07;1.30;;;1.02;;
48665;SDS011;34452;50.796;4.994;2023-01-16T17:31:34;2.33;;;0.90;;
48665;SDS011;34452;50.796;4.994;2023-01-16T17:34:02;1.67;;;0.70;;
48665;SDS011;34452;50.796;4.994;2023-01-16T17:36:28;0.68;;;0.68;;
48665;SDS011;34452;50.796;4.994;2023-01-16T17:38:54;1.65;;;1.00;;
48665;SDS011;34452;50.796;4.994;2023-01-16T17:41:21;1.35;;;0.63;;
48665;SDS011;34452;50.796;4.994;2023-01-16T17:43:49;1.40;;;0.70;;
48665;SDS011;34452;50.796;4.994;2023-01-16T17:46:34;0.50;;;0.50;;
48665;SDS011;34452;50.796;4.994;2023-01-16T17:48:59;1.98;;;0.50;;
48665;SDS011;34452;50.796;4.994;2023-01-16T17:51:25;1.85;;;0.77;;
48665;SDS011;34452;50.796;4.994;2023-01-16T17:53:51;1.73;;;0.57;;
48665;SDS011;34452;50.796;4.994;2023-01-16T17:56:18;1.63;;;0.50;;
48665;SDS011;34452;50.796;4.994;2023-01-16T17:58:46;1.73;;;0.63;;
48665;SDS011;34452;50.796;4.994;2023-01-16T18:03:50;2.40;;;0.90;;
48665;SDS011;34452;50.796;4.994;2023-01-16T18:06:22;1.90;;;0.85;;
48665;SDS011;34452;50.796;4.994;2023-01-16T18:11:14;3.80;;;1.73;;
48665;SDS011;34452;50.796;4.994;2023-01-16T18:13:59;1.70;;;1.60;;
48665;SDS011;34452;50.796;4.994;2023-01-16T18:16:44;3.47;;;1.13;;
48665;SDS011;34452;50.796;4.994;2023-01-16T18:19:28;4.10;;;1.00;;
48665;SDS011;34452;50.796;4.994;2023-01-16T18:21:53;3.80;;;1.58;;
48665;SDS011;34452;50.796;4.994;2023-01-16T18:24:32;3.33;;;1.98;;
48665;SDS011;34452;50.796;4.994;2023-01-16T18:27:00;6.32;;;2.20;;